Beeghly Heights, FL

9:54 AM EDT on July 27, 2017 (GMT -0400)
Victoria Pointe | | Change Station

Elev 20 ft 30.45 °N, 81.68 °W | Updated 36 seconds ago

Mostly Cloudy
Mostly Cloudy
80.1 °F
Feels Like 86 °F
N
0.0
Wind Variable Wind from SSW

Today
High -- | Low -- °F
--% Chance of Precip.
Yesterday
High -- | Low -- °F
Precip. -- in
Pressure 30.02 in
Visibility 10.0 miles
Clouds Few 600 ft
Scattered Clouds 6000 ft
Mostly Cloudy 10000 ft
Mostly Cloudy 20000 ft
Heat Index 86 °F
Dew Point 77 °F
Humidity 91%
Rainfall 0.00 in
Snow Depth Not available.
6:42 AM 8:24 PM
Waxing Crescent, 21% visible
METAR KJAX 271256Z 00000KT 10SM FEW006 SCT060 BKN100 BKN200 26/25 A3001 RMK AO2 RAE1157B15E49 SLP164 P0001 T02560250
Pressure 30.02 in
Visibility 10.0 miles
Clouds Few 600 ft
Scattered Clouds 6000 ft
Mostly Cloudy 10000 ft
Mostly Cloudy 20000 ft
Heat Index 86 °F
Dew Point 77 °F
Humidity 91%
Rainfall 0.00 in
Snow Depth Not available.
6:42 AM 8:24 PM
Waxing Crescent, 21% visible
METAR KJAX 271256Z 00000KT 10SM FEW006 SCT060 BKN100 BKN200 26/25 A3001 RMK AO2 RAE1157B15E49 SLP164 P0001 T02560250

Get Severe Weather Alerts

Thanks for signing up!

Be on the lookout for a verification email in your inbox.

You'll start receiving the daily forecast at 6 AM.

×

10-Day Weather Forecast

Almanac

Astronomy

Jul. 27, 2017 Rise Set
Actual Time
Civil Twilight
Nautical Twilight
Astronomical Twilight
Moon
Length of Visible Light
Length of Day
Tomorrow will be .
, % of the Moon is Illuminated

Today's Extremes

State Highs State Lows

Community

WunderPhotos

Category 6

Welcome to Category 6. This is the collective home for Weather Underground's featured writeups by Dr. Jeff Masters (right), Bob Henson (left), Chris Burt, and other regular contributors.

Nearby

Air Quality

  Air Quality AQ Index Pollutant
Not available.

Snow Depth

Station Depth Elevation

Earthquake Activity

City Distance Mag. Time & Date
Minimum magnitude displayed is 2.5.

Coastal Water Temperatures

Place Temperature

Stations

Nearby Weather Stations

Station Location Temp. Windchill Dew Point Humidity Wind Precip. Elev Updated Type
                   

Watches & Warnings

There are currently no watches in effect.